createdAt,value
2018-10-16T00:06:02.351Z,315.00
2018-10-16T00:16:02.382Z,315.00
2018-10-16T00:26:02.363Z,315.00
2018-10-16T00:36:02.413Z,315.00
2018-10-16T00:46:02.340Z,315.00
2018-10-16T00:56:02.526Z,315.00
2018-10-16T01:06:02.406Z,352.78
2018-10-16T01:16:02.344Z,342.38
2018-10-16T01:26:02.395Z,315.00
2018-10-16T01:36:02.410Z,315.00
2018-10-16T01:46:02.333Z,315.00
2018-10-16T01:56:02.302Z,315.00
2018-10-16T02:06:02.415Z,315.00
2018-10-16T02:16:02.313Z,315.00
2018-10-16T02:26:02.353Z,315.00
2018-10-16T02:36:02.410Z,315.00
2018-10-16T02:46:02.389Z,315.00
2018-10-16T02:56:02.357Z,315.00
2018-10-16T03:06:02.535Z,315.00
2018-10-16T03:16:02.391Z,315.00
2018-10-16T03:26:02.348Z,315.00
2018-10-16T03:36:02.540Z,315.00
2018-10-16T03:46:02.325Z,315.00
2018-10-16T03:56:02.337Z,315.00
2018-10-16T04:06:02.343Z,315.00
2018-10-16T04:16:02.353Z,315.00
2018-10-16T04:26:02.291Z,315.00
2018-10-16T04:36:02.302Z,315.00
2018-10-16T04:46:02.657Z,315.00
2018-10-16T04:56:02.349Z,315.00
2018-10-16T05:06:02.390Z,315.00
2018-10-16T05:16:02.362Z,315.00
2018-10-16T05:26:02.401Z,315.00
2018-10-16T05:36:02.336Z,315.00
2018-10-16T05:46:02.301Z,315.00
2018-10-16T05:56:02.286Z,315.00
2018-10-16T06:06:02.310Z,315.00
2018-10-16T06:16:02.416Z,315.00
2018-10-16T06:26:02.331Z,315.00
2018-10-16T06:36:02.405Z,315.00
2018-10-16T06:46:02.397Z,315.00
2018-10-16T06:56:03.784Z,290.23
2018-10-16T07:06:02.401Z,270.00
2018-10-16T07:16:02.491Z,270.00
2018-10-16T07:26:02.308Z,310.69
2018-10-16T07:36:02.339Z,242.61
2018-10-16T07:46:02.377Z,271.64
2018-10-16T07:56:03.402Z,300.56
2018-10-16T08:06:02.320Z,275.03
2018-10-16T08:16:02.624Z,283.41
2018-10-16T08:26:02.389Z,307.59
2018-10-16T08:36:02.416Z,290.08
2018-10-16T08:46:02.273Z,300.14
2018-10-16T08:56:02.339Z,269.51
2018-10-16T09:06:02.465Z,268.87
2018-10-16T09:16:03.039Z,270.30
2018-10-16T09:26:02.329Z,293.96
2018-10-16T09:36:02.582Z,305.14
2018-10-16T09:46:02.453Z,284.10
2018-10-16T09:56:02.453Z,302.11
2018-10-16T10:06:02.526Z,288.10
2018-10-16T10:16:02.366Z,310.01
2018-10-16T10:26:02.709Z,286.84
2018-10-16T10:36:02.430Z,288.36
2018-10-16T10:46:02.591Z,274.28
2018-10-16T10:56:02.427Z,299.73
2018-10-16T11:06:02.399Z,296.32
2018-10-16T11:16:02.475Z,243.27
2018-10-16T11:26:02.415Z,299.24
2018-10-16T11:36:02.488Z,282.76
2018-10-16T11:46:03.209Z,244.57
2018-10-16T11:56:02.476Z,248.27
2018-10-16T12:06:02.458Z,245.46
2018-10-16T12:16:02.611Z,251.78
2018-10-16T12:26:03.422Z,281.16
2018-10-16T12:36:02.489Z,287.06
2018-10-16T12:46:02.614Z,268.28
2018-10-16T12:56:02.656Z,264.54
2018-10-16T13:06:02.455Z,217.26
2018-10-16T13:16:02.889Z,260.22
2018-10-16T13:26:02.619Z,278.15
2018-10-16T13:36:02.534Z,226.38
2018-10-16T13:46:02.493Z,215.51
2018-10-16T13:56:02.516Z,236.73
2018-10-16T14:06:02.514Z,234.83
2018-10-16T14:16:02.777Z,209.94
2018-10-16T14:26:02.645Z,236.16
2018-10-16T14:36:03.038Z,249.08
2018-10-16T14:46:05.318Z,322.36
2018-10-16T14:56:02.476Z,270.49
2018-10-16T15:06:02.533Z,244.49
2018-10-16T15:16:02.669Z,207.92
2018-10-16T15:26:02.505Z,211.37
2018-10-16T15:36:02.627Z,221.10
2018-10-16T15:46:02.817Z,209.98
2018-10-16T15:56:02.630Z,239.55
2018-10-16T16:06:02.503Z,217.77
2018-10-16T16:16:02.537Z,221.83
2018-10-16T16:26:02.754Z,209.95
2018-10-16T16:36:02.559Z,211.53
2018-10-16T16:46:02.560Z,207.30
2018-10-16T16:56:02.606Z,218.81
2018-10-16T17:06:03.131Z,220.10
2018-10-16T17:16:02.572Z,218.88
2018-10-16T17:26:02.782Z,225.00
2018-10-16T17:36:02.479Z,232.85
2018-10-16T17:46:02.531Z,309.96
2018-10-16T17:56:02.677Z,330.78
2018-10-16T18:06:02.531Z,234.31
2018-10-16T18:16:04.056Z,221.05
2018-10-16T18:26:02.578Z,280.39
2018-10-16T18:36:02.645Z,315.00
2018-10-16T18:46:02.544Z,303.98
2018-10-16T18:56:02.572Z,269.18
2018-10-16T19:06:02.568Z,315.00
2018-10-16T19:16:04.131Z,302.78
2018-10-16T19:26:02.536Z,315.00
2018-10-16T19:36:02.567Z,315.00
2018-10-16T19:46:02.560Z,315.00
2018-10-16T19:56:03.449Z,340.75
2018-10-16T20:06:02.487Z,315.00
2018-10-16T20:16:02.557Z,315.00
2018-10-16T20:26:02.483Z,315.00
2018-10-16T20:36:02.499Z,315.00
2018-10-16T20:46:02.594Z,315.00
2018-10-16T20:56:02.588Z,315.00
2018-10-16T21:06:02.711Z,315.00
2018-10-16T21:16:02.561Z,315.00
2018-10-16T21:26:02.873Z,315.00
2018-10-16T21:36:02.608Z,315.00
2018-10-16T21:46:02.673Z,315.00
2018-10-16T21:56:02.600Z,315.00
2018-10-16T22:06:02.588Z,315.00
2018-10-16T22:16:02.565Z,345.57
2018-10-16T22:26:02.646Z,309.57
2018-10-16T22:36:02.533Z,293.80
2018-10-16T22:46:03.328Z,344.79
2018-10-16T22:56:02.733Z,315.00
2018-10-16T23:06:02.732Z,315.00
2018-10-16T23:16:02.719Z,315.00
2018-10-16T23:26:02.665Z,315.00
2018-10-16T23:36:02.652Z,336.74
2018-10-16T23:46:02.671Z,315.00
2018-10-16T23:56:02.523Z,312.01
